Time;durP1;ratioP1;P1;durP2;ratioP2;P2;SDS_P1;SDS_P2;PMS_P1;PMS_P2;Temp;Humidity;BMP_temperature;BMP_pressure;BME280_temperature;BME280_humidity;BME280_pressure;Samples;Min_cycle;Max_cycle;Signal;HPM_P1;HPM_P2
2022/05/16 00:00:53;;;;;;;2.60;0.90;;;8.80;1.00;;;8.86;72.52;99176.28;5062211;27;119196;-74
2022/05/16 00:03:22;;;;;;;2.80;1.40;;;8.70;1.00;;;8.78;72.42;99174.34;5080403;27;130275;-70
2022/05/16 00:05:50;;;;;;;2.05;1.10;;;8.70;1.00;;;8.75;72.82;99169.53;5078289;27;129429;-70
2022/05/16 00:08:19;;;;;;;2.88;1.30;;;8.60;1.00;;;8.64;73.35;99169.75;5078511;27;120067;-69
2022/05/16 00:10:47;;;;;;;1.88;1.13;;;8.50;1.00;;;8.62;73.59;99171.97;5077844;27;118505;-71
2022/05/16 00:13:16;;;;;;;2.33;1.20;;;8.50;1.00;;;8.60;73.75;99171.50;5061926;27;130135;-68
2022/05/16 00:15:44;;;;;;;2.55;1.20;;;8.40;1.00;;;8.50;74.44;99169.00;5079371;27;129449;-71
2022/05/16 00:18:15;;;;;;;3.42;1.77;;;8.30;1.00;;;8.46;74.68;99173.44;5081195;27;120198;-70
2022/05/16 00:20:43;;;;;;;2.42;1.20;;;8.20;1.00;;;8.44;75.11;99170.25;5080182;27;119559;-70
2022/05/16 00:23:11;;;;;;;2.15;1.20;;;8.10;1.00;;;8.37;75.35;99175.25;5079886;27;130226;-73
2022/05/16 00:25:40;;;;;;;2.33;1.33;;;8.00;1.00;;;8.32;75.59;99183.47;5081162;27;129778;-73
2022/05/16 00:28:09;;;;;;;2.53;1.48;;;8.10;1.00;;;8.31;75.80;99171.06;5066000;27;120754;-69
2022/05/16 00:30:38;;;;;;;2.05;1.30;;;8.20;1.00;;;8.30;75.92;99167.53;5081554;27;119593;-69
2022/05/16 00:33:07;;;;;;;2.33;1.20;;;8.10;1.00;;;8.30;75.77;99185.66;5083074;27;131354;-73
2022/05/16 00:35:37;;;;;;;4.38;1.45;;;8.20;1.00;;;8.21;76.14;99178.28;5084368;27;129657;-76
2022/05/16 00:38:06;;;;;;;2.08;1.15;;;8.20;1.00;;;8.24;75.68;99183.09;5079276;27;121980;-71
2022/05/16 00:40:35;;;;;;;3.25;1.50;;;8.20;1.00;;;8.22;75.94;99189.91;5080739;27;122375;-70
2022/05/16 00:43:06;;;;;;;2.03;1.10;;;8.10;1.00;;;8.17;76.27;99192.72;5080587;27;131799;-72
2022/05/16 00:45:36;;;;;;;2.63;1.45;;;7.90;1.00;;;8.11;76.45;99178.50;5080574;27;130802;-73
2022/05/16 00:48:06;;;;;;;2.92;1.40;;;7.90;1.00;;;8.03;76.80;99190.03;5049269;27;118572;-73
2022/05/16 00:50:39;;;;;;;3.53;1.30;;;7.80;1.00;;;7.97;76.58;99199.34;5081182;27;120141;-70
2022/05/16 00:53:10;;;;;;;3.78;1.40;;;7.70;1.00;;;7.91;76.83;99191.31;5081801;27;130220;-70
2022/05/16 00:55:39;;;;;;;3.35;1.50;;;7.70;1.00;;;7.89;77.11;99198.13;5081198;27;130607;-71
2022/05/16 00:58:13;;;;;;;2.35;1.50;;;7.70;1.00;;;7.87;76.94;99211.94;5061995;27;119527;-72
2022/05/16 01:00:46;;;;;;;3.40;1.63;;;7.60;1.00;;;7.72;77.40;99210.31;5079704;27;119965;-72
2022/05/16 01:06:06;;;;;;;3.92;1.27;;;7.60;1.00;;;7.53;78.12;99217.72;5081104;27;129648;-71
2022/05/16 01:08:43;;;;;;;3.10;1.30;;;7.60;1.00;;;7.42;78.73;99203.59;5081282;27;118407;-71
2022/05/16 01:11:15;;;;;;;2.85;1.30;;;7.50;1.00;;;7.31;78.40;99205.69;5062185;27;119599;-72
2022/05/16 01:13:44;;;;;;;2.70;1.30;;;7.40;1.00;;;7.27;78.76;99209.28;5081518;27;130574;-71
2022/05/16 01:16:12;;;;;;;2.72;1.00;;;7.30;1.00;;;7.19;78.58;99208.84;5080563;27;129859;-72
2022/05/16 01:18:40;;;;;;;2.67;1.30;;;7.30;1.00;;;7.12;78.89;99213.00;5080498;27;119867;-73
2022/05/16 01:21:34;;;;;;;3.35;1.30;;;7.30;1.00;;;7.10;78.96;99210.59;5079917;27;119903;-71
2022/05/16 01:24:09;;;;;;;2.50;1.27;;;7.20;1.00;;;7.15;78.72;99218.66;5079708;27;130855;-71
2022/05/16 01:26:39;;;;;;;1.90;1.23;;;7.10;1.00;;;7.07;78.92;99215.81;5080355;27;129820;-72
2022/05/16 01:29:09;;;;;;;3.55;1.35;;;7.10;1.00;;;7.01;79.10;99225.88;5079706;27;122981;-73
2022/05/16 01:31:38;;;;;;;2.83;1.38;;;7.00;1.00;;;6.94;79.09;99225.47;5047853;27;121288;-71
2022/05/16 01:34:07;;;;;;;2.63;1.30;;;7.00;1.00;;;6.81;79.72;99222.41;5080701;27;130813;-70
2022/05/16 01:36:35;;;;;;;2.50;1.38;;;6.90;1.00;;;6.74;79.10;99223.88;5062010;27;129572;-73
2022/05/16 01:39:05;;;;;;;2.92;1.40;;;6.90;1.00;;;6.83;79.27;99222.91;5080660;27;120081;-70
2022/05/16 01:41:34;;;;;;;2.03;1.20;;;6.80;1.00;;;6.81;78.75;99233.19;5078768;27;119937;-72
2022/05/16 01:44:02;;;;;;;2.70;1.35;;;6.80;1.00;;;6.80;78.87;99222.69;5080215;27;130441;-70
2022/05/16 01:46:35;;;;;;;1.75;1.13;;;6.80;1.00;;;6.69;78.95;99222.03;5048473;27;129817;-70
2022/05/16 01:49:05;;;;;;;1.83;1.17;;;6.80;1.00;;;6.63;78.96;99228.59;5080684;27;121430;-69
2022/05/16 01:51:33;;;;;;;1.45;1.08;;;6.70;1.00;;;6.62;78.90;99233.22;5079643;27;119955;-71
2022/05/16 01:54:04;;;;;;;2.03;1.20;;;6.70;1.00;;;6.67;78.76;99240.44;5063721;27;129159;-72
2022/05/16 01:56:33;;;;;;;1.45;1.15;;;6.60;1.00;;;6.62;78.78;99243.19;5079720;27;130572;-71
2022/05/16 01:59:03;;;;;;;2.42;1.05;;;6.60;1.00;;;6.59;78.76;99246.44;5047639;27;118546;-72
2022/05/16 02:01:33;;;;;;;2.88;1.30;;;6.50;1.00;;;6.60;78.71;99239.97;5079118;27;119588;-71
2022/05/16 02:04:02;;;;;;;2.30;1.17;;;6.50;1.00;;;6.54;78.44;99241.94;5079433;27;129939;-71
2022/05/16 02:06:31;;;;;;;2.70;1.10;;;6.50;1.00;;;6.51;78.93;99247.13;5079955;27;130103;-73
2022/05/16 02:09:00;;;;;;;1.55;1.10;;;6.40;1.00;;;6.58;78.20;99247.56;5080211;27;119601;-70
2022/05/16 02:11:30;;;;;;;2.08;1.20;;;6.40;1.00;;;6.59;77.73;99249.97;5080092;27;119353;-70
2022/05/16 02:13:58;;;;;;;3.22;1.10;;;6.30;1.00;;;6.60;78.04;99250.75;5064423;27;129925;-69
2022/05/16 02:16:26;;;;;;;1.75;1.08;;;6.30;1.00;;;6.55;77.56;99254.31;5079466;27;130032;-71
2022/05/16 02:18:55;;;;;;;2.92;1.20;;;6.20;1.00;;;6.50;77.71;99250.88;5063368;27;122474;-70
2022/05/16 02:26:56;;;;;;;2.80;1.20;;;6.30;1.00;;;6.35;78.23;99244.63;5082506;27;130499;-70
2022/05/16 02:29:25;;;;;;;2.67;1.27;;;6.20;1.00;;;6.40;78.31;99246.44;5080022;27;120203;-70
2022/05/16 02:31:54;;;;;;;2.33;1.00;;;6.20;1.00;;;6.44;77.96;99252.88;5079202;27;119991;-70
2022/05/16 02:34:22;;;;;;;2.33;1.23;;;6.20;1.00;;;6.51;77.39;99257.91;5079297;27;130507;-70
2022/05/16 02:36:52;;;;;;;1.67;1.30;;;6.10;1.00;;;6.54;77.85;99260.00;5064229;27;129262;-71
2022/05/16 02:39:21;;;;;;;2.83;1.50;;;6.10;1.00;;;6.61;77.02;99252.38;5078482;27;120079;-71
2022/05/16 02:41:50;;;;;;;2.63;1.17;;;6.10;1.00;;;6.62;77.28;99259.34;5081110;27;119946;-73
2022/05/16 02:44:21;;;;;;;2.50;1.40;;;6.10;1.00;;;6.61;77.41;99271.25;5077316;27;129720;-69
2022/05/16 02:46:49;;;;;;;3.17;1.65;;;6.10;1.00;;;6.62;77.07;99270.13;5060644;27;130035;-70
2022/05/16 02:49:18;;;;;;;3.03;1.70;;;6.20;1.00;;;6.64;77.17;99267.97;5079239;27;120203;-69
2022/05/16 02:51:46;;;;;;;2.92;1.33;;;6.20;1.00;;;6.70;76.84;99266.81;5078780;27;120367;-72
2022/05/16 02:54:15;;;;;;;2.33;1.20;;;6.30;1.00;;;6.75;76.66;99264.03;5079199;27;130407;-69
2022/05/16 02:56:43;;;;;;;2.08;0.90;;;6.30;1.00;;;6.83;75.93;99274.16;5063199;27;128313;-70
2022/05/16 02:59:12;;;;;;;3.03;1.38;;;6.30;1.00;;;6.86;75.82;99280.06;5079234;27;119504;-72
2022/05/16 03:01:42;;;;;;;1.42;1.00;;;6.30;1.00;;;7.05;75.83;99272.75;5059846;27;119880;-71
2022/05/16 03:04:11;;;;;;;1.88;1.15;;;6.40;1.00;;;7.98;73.53;99260.38;5063063;27;129805;-71
2022/05/16 03:06:39;;;;;;;1.48;1.00;;;7.00;1.00;;;9.21;69.94;99268.59;5078517;27;130223;-71
2022/05/16 03:09:07;;;;;;;2.30;1.00;;;7.50;1.00;;;10.21;64.07;99271.97;5078243;27;122764;-71
2022/05/16 03:11:36;;;;;;;2.08;0.60;;;7.70;1.00;;;11.29;61.33;99280.38;5078464;27;122029;-71
2022/05/16 03:14:04;;;;;;;2.20;0.70;;;8.30;1.00;;;12.32;55.70;99276.09;5078728;27;130622;-70
2022/05/16 03:16:34;;;;;;;1.15;0.77;;;8.00;1.00;;;12.33;54.73;99266.81;5078472;27;129429;-70
2022/05/16 03:19:04;;;;;;;1.98;1.10;;;8.20;1.00;;;11.38;56.36;99272.22;5078808;27;120200;-70
2022/05/16 03:21:33;;;;;;;1.00;0.77;;;7.60;1.00;;;10.92;57.79;99274.50;5077604;27;119682;-70
2022/05/16 03:24:01;;;;;;;1.58;0.82;;;7.50;1.00;;;10.26;59.54;99269.88;5078765;27;129873;-70
2022/05/16 03:26:30;;;;;;;2.33;1.00;;;7.30;1.00;;;10.00;60.38;99280.66;5078824;27;130350;-70
2022/05/16 03:28:58;;;;;;;1.50;1.13;;;7.40;1.00;;;8.99;63.51;99267.47;5078962;27;119775;-69
2022/05/16 03:31:27;;;;;;;2.65;1.33;;;7.30;1.00;;;8.61;63.46;99273.16;5059469;27;120223;-70
2022/05/16 03:33:56;;;;;;;2.60;1.20;;;7.20;1.00;;;8.43;65.36;99271.34;5076984;27;130326;-68
2022/05/16 03:36:25;;;;;;;1.52;0.90;;;7.20;1.00;;;8.49;65.76;99274.78;5078216;27;129385;-70
2022/05/16 03:41:41;;;;;;;1.83;1.00;;;7.30;1.00;;;8.32;66.03;99283.50;5078068;27;120172;-71
2022/05/16 03:44:10;;;;;;;2.42;0.80;;;7.20;1.00;;;7.91;66.69;99294.00;5078345;27;130731;-72
2022/05/16 03:46:39;;;;;;;1.83;1.00;;;7.20;1.00;;;7.56;67.84;99290.84;5070851;27;130158;-73
2022/05/16 03:49:08;;;;;;;1.45;0.93;;;7.20;1.00;;;7.83;68.05;99285.78;5042234;27;119072;-72
2022/05/16 03:51:39;;;;;;;2.78;0.98;;;7.30;1.00;;;7.90;67.46;99289.69;5040851;27;118490;-73
2022/05/16 03:54:07;;;;;;;2.63;0.85;;;7.30;1.00;;;7.65;68.36;99290.16;5056918;27;131855;-70
2022/05/16 03:56:36;;;;;;;3.20;1.00;;;7.30;1.00;;;7.56;69.03;99304.34;5056431;27;129510;-72
2022/05/16 03:59:05;;;;;;;2.83;0.90;;;7.30;1.00;;;7.90;68.46;99303.22;5075193;27;122935;-71
2022/05/16 04:01:34;;;;;;;3.60;1.20;;;7.50;1.00;;;7.74;68.00;99304.56;5077340;27;122303;-70
2022/05/16 04:04:03;;;;;;;1.27;0.82;;;7.40;1.00;;;7.86;67.84;99299.50;5077704;27;130521;-74
2022/05/16 04:06:34;;;;;;;2.30;1.10;;;7.40;1.00;;;7.89;67.02;99296.19;5077646;27;130136;-70
2022/05/16 04:09:04;;;;;;;2.17;0.88;;;7.40;1.00;;;7.70;68.22;99303.59;5078535;27;119956;-74
2022/05/16 04:11:34;;;;;;;1.02;0.90;;;7.40;1.00;;;7.73;68.13;99308.41;5076585;27;120662;-72
2022/05/16 04:14:03;;;;;;;2.25;1.20;;;7.40;1.00;;;8.01;67.33;99308.41;5061888;27;129257;-75
2022/05/16 04:16:32;;;;;;;2.03;0.95;;;7.50;1.00;;;8.06;67.71;99300.22;5059229;27;130108;-72
2022/05/16 04:19:01;;;;;;;3.85;1.00;;;7.60;1.00;;;7.86;68.63;99307.59;5045475;27;119559;-70
2022/05/16 04:21:30;;;;;;;1.85;0.93;;;7.60;1.00;;;7.96;67.17;99303.13;5057772;27;119884;-71
2022/05/16 04:23:59;;;;;;;3.35;1.10;;;7.60;1.00;;;8.13;66.83;99316.03;5075952;27;130084;-71
2022/05/16 04:26:29;;;;;;;1.75;1.30;;;7.70;1.00;;;8.00;66.12;99315.72;5058806;27;129862;-76
2022/05/16 04:28:58;;;;;;;1.55;1.02;;;7.60;1.00;;;7.85;67.88;99318.72;5061491;27;119608;-70
2022/05/16 04:31:27;;;;;;;5.75;2.70;;;7.70;1.00;;;7.93;67.15;99318.00;5058010;27;119940;-70
2022/05/16 04:33:55;;;;;;;4.13;1.58;;;7.70;1.00;;;8.03;66.35;99311.63;5076787;27;130296;-69
2022/05/16 04:36:23;;;;;;;1.95;1.10;;;7.70;1.00;;;8.32;65.89;99313.25;5077155;27;130133;-71
2022/05/16 04:38:52;;;;;;;6.28;3.67;;;7.90;1.00;;;8.42;64.48;99318.44;5062122;27;119341;-73
2022/05/16 04:44:08;;;;;;;2.78;1.30;;;7.90;1.00;;;8.02;66.34;99318.13;5077423;27;130091;-71
2022/05/16 04:46:37;;;;;;;2.30;1.20;;;7.90;1.00;;;8.01;64.77;99314.63;5075914;27;129743;-71
2022/05/16 04:49:05;;;;;;;3.95;1.52;;;7.80;1.00;;;8.01;66.54;99313.81;5076178;27;122953;-71
2022/05/16 04:51:34;;;;;;;4.50;1.60;;;8.00;1.00;;;8.76;64.47;99323.44;5079997;27;123185;-72
2022/05/16 04:54:02;;;;;;;2.55;1.30;;;8.30;1.00;;;8.85;63.04;99318.13;5076778;27;130113;-72
2022/05/16 04:56:32;;;;;;;2.85;1.02;;;8.30;1.00;;;8.39;61.76;99311.72;5077309;27;130101;-71
2022/05/16 04:59:00;;;;;;;2.35;1.25;;;8.00;1.00;;;8.28;63.00;99324.66;5077330;27;119739;-70
2022/05/16 05:01:30;;;;;;;3.00;1.10;;;8.00;1.00;;;8.34;61.85;99332.69;5062164;27;119122;-71
2022/05/16 05:03:59;;;;;;;3.67;1.70;;;8.00;1.00;;;8.43;63.23;99325.44;5064200;27;129853;-70
2022/05/16 05:06:28;;;;;;;1.88;0.85;;;8.10;1.00;;;8.61;61.35;99327.28;5080652;27;130361;-75
2022/05/16 05:08:56;;;;;;;4.95;2.15;;;8.30;1.00;;;8.40;61.92;99323.38;5080736;27;120212;-72
2022/05/16 05:16:59;;;;;;;2.58;1.35;;;8.30;1.00;;;9.00;59.29;99339.41;5080166;27;130000;-71
2022/05/16 05:19:27;;;;;;;2.55;1.00;;;8.50;99.90;;;8.91;59.51;99352.09;5065520;27;119216;-70
2022/05/16 05:21:57;;;;;;;1.48;0.90;;;8.40;1.00;;;8.78;59.40;99337.47;5062439;27;120112;-71
2022/05/16 05:24:25;;;;;;;2.75;0.90;;;8.40;99.90;;;8.73;59.23;99336.78;5080295;27;130374;-73
2022/05/16 05:26:54;;;;;;;2.00;0.90;;;8.40;99.90;;;9.03;58.95;99361.59;5082877;27;130550;-75
2022/05/16 05:29:23;;;;;;;2.40;0.90;;;8.70;99.90;;;8.86;59.38;99344.06;5065236;27;119634;-74
2022/05/16 05:31:52;;;;;;;2.30;0.98;;;8.50;99.90;;;9.06;58.05;99344.75;5080541;27;120089;-71
2022/05/16 05:34:21;;;;;;;2.05;1.00;;;8.70;99.90;;;9.08;58.00;99339.81;5063552;27;128849;-72
2022/05/16 05:36:50;;;;;;;2.28;1.17;;;8.60;99.90;;;9.15;58.57;99334.78;5077985;27;129528;-72
2022/05/16 05:39:20;;;;;;;3.92;1.58;;;8.90;99.90;;;9.42;57.39;99338.50;5076770;27;122495;-72
2022/05/16 05:41:48;;;;;;;2.33;1.30;;;8.90;99.90;;;9.46;58.27;99334.09;5078427;27;121671;-72
2022/05/16 05:44:17;;;;;;;2.03;0.95;;;9.10;99.90;;;10.02;54.94;99338.06;5080043;27;130414;-71
2022/05/16 05:46:46;;;;;;;1.80;0.80;;;9.20;99.90;;;10.27;54.04;99341.22;5079170;27;130242;-72
2022/05/16 05:49:14;;;;;;;2.42;1.00;;;9.20;99.90;;;10.16;55.57;99339.88;5064692;27;119173;-73
2022/05/16 05:51:44;;;;;;;2.45;1.27;;;9.50;99.90;;;10.25;55.62;99338.00;5082848;27;122557;-71
2022/05/16 05:54:13;;;;;;;1.67;0.82;;;9.60;99.90;;;10.02;56.05;99335.38;5079824;27;130715;-73
2022/05/16 05:56:41;;;;;;;2.63;0.70;;;9.40;99.90;;;10.05;55.16;99345.59;5080017;27;130787;-74
2022/05/16 05:59:09;;;;;;;2.40;0.90;;;9.40;99.90;;;10.24;53.50;99336.44;5064610;27;118770;-72
2022/05/16 06:01:38;;;;;;;2.38;0.90;;;9.40;99.90;;;9.86;54.42;99337.69;5080183;27;119606;-73
2022/05/16 06:04:06;;;;;;;2.25;0.93;;;9.20;99.90;;;9.76;54.40;99359.59;5078865;27;130896;-77
2022/05/16 06:06:34;;;;;;;2.45;1.00;;;9.20;99.90;;;9.55;54.20;99356.59;5079856;27;130473;-78
2022/05/16 06:09:05;;;;;;;1.38;0.82;;;8.90;99.90;;;9.80;54.53;99354.34;5064117;27;119253;-71
2022/05/16 06:11:34;;;;;;;1.95;0.77;;;9.10;99.90;;;10.29;53.77;99344.41;5064188;27;118953;-73
2022/05/16 06:14:02;;;;;;;3.10;1.00;;;9.40;99.90;;;10.22;52.28;99339.44;5062877;27;129229;-72
2022/05/16 06:16:31;;;;;;;1.83;0.77;;;9.40;99.90;;;9.94;55.42;99338.84;5079385;27;129764;-76
2022/05/16 06:19:00;;;;;;;2.30;0.90;;;9.40;99.90;;;10.42;55.38;99348.97;5064354;27;119551;-71
2022/05/16 06:21:28;;;;;;;2.90;1.20;;;9.80;99.90;;;10.21;54.35;99342.47;5080486;27;120000;-70
2022/05/16 06:23:56;;;;;;;2.97;1.27;;;9.50;99.90;;;10.81;53.17;99340.28;5079506;27;130771;-72
2022/05/16 06:26:27;;;;;;;3.80;1.30;;;9.80;99.90;;;11.33;51.18;99338.41;5076961;27;129600;-71
2022/05/16 06:28:55;;;;;;;2.80;1.40;;;10.10;99.90;;;11.32;51.06;99342.22;5077924;27;123961;-72
2022/05/16 06:31:23;;;;;;;2.05;0.85;;;10.00;99.90;;;10.72;51.00;99335.63;5078333;27;122304;-74
2022/05/16 06:33:52;;;;;;;0.90;0.70;;;9.80;99.90;;;10.11;50.48;99343.53;5078174;27;130184;-75
2022/05/16 06:36:21;;;;;;;4.57;1.10;;;9.50;99.90;;;9.93;51.40;99336.44;5063374;27;129119;-75
2022/05/16 06:38:49;;;;;;;1.05;0.70;;;9.60;99.90;;;10.25;51.96;99327.97;5044158;27;119573;-75
2022/05/16 06:41:18;;;;;;;3.83;1.35;;;9.80;99.90;;;10.68;50.20;99326.53;5059237;27;119511;-73
2022/05/16 06:43:48;;;;;;;1.75;0.60;;;10.10;99.90;;;10.49;50.31;99328.72;5046243;27;129480;-72
2022/05/16 06:46:16;;;;;;;2.05;0.70;;;10.00;99.90;;;10.55;50.99;99328.25;5079242;27;129733;-74
2022/05/16 06:48:45;;;;;;;1.27;0.70;;;10.10;99.90;;;10.51;50.07;99350.91;5079473;27;121744;-73
2022/05/16 06:51:13;;;;;;;1.98;0.93;;;10.10;99.90;;;10.83;49.16;99335.31;5082379;27;119849;-74
2022/05/16 06:53:42;;;;;;;4.65;1.77;;;10.00;99.90;;;10.88;51.51;99327.03;5077892;27;130145;-73
2022/05/16 06:56:11;;;;;;;2.58;1.00;;;10.40;99.90;;;11.60;49.71;99335.66;5078659;27;129915;-73
2022/05/16 06:58:40;;;;;;;2.05;1.00;;;10.90;99.90;;;11.83;46.36;99334.34;5078902;27;120381;-75
2022/05/16 07:01:09;;;;;;;1.92;1.10;;;10.50;99.90;;;11.93;45.78;99343.31;5063455;27;120275;-75
2022/05/16 07:03:40;;;;;;;5.93;2.20;;;10.60;99.90;;;11.82;46.76;99335.44;5063063;27;131274;-75
2022/05/16 07:06:09;;;;;;;4.75;1.38;;;10.60;99.90;;;11.50;48.31;99345.75;5062761;27;128363;-75
2022/05/16 07:08:38;;;;;;;2.38;0.82;;;10.50;99.90;;;12.16;45.86;99341.16;5070309;27;119597;-71
2022/05/16 07:11:07;;;;;;;2.92;0.90;;;10.80;99.90;;;11.82;47.23;99343.59;5045681;27;120785;-75
2022/05/16 07:13:36;;;;;;;1.83;0.80;;;10.90;99.90;;;12.22;45.63;99339.84;5058013;27;130675;-71
2022/05/16 07:16:05;;;;;;;1.70;0.98;;;11.00;99.90;;;12.25;45.24;99343.81;5058181;27;130108;-71
2022/05/16 07:18:35;;;;;;;1.73;0.65;;;11.10;99.90;;;12.07;45.53;99327.56;5068839;27;123671;-74
2022/05/16 07:21:06;;;;;;;2.10;1.33;;;10.70;99.90;;;12.18;45.56;99339.69;5043254;27;121894;-74
2022/05/16 07:23:34;;;;;;;0.82;0.70;;;10.70;99.90;;;12.32;45.27;99328.59;5057644;27;130869;-73
2022/05/16 07:28:48;;;;;;;2.97;1.35;;;11.30;99.90;;;12.37;45.48;99335.78;5057626;27;119521;-75
2022/05/16 07:31:17;;;;;;;2.45;1.50;;;11.40;99.90;;;12.26;45.85;99340.00;5057611;27;119232;-73
2022/05/16 07:33:47;;;;;;;1.52;1.00;;;11.40;99.90;;;12.55;44.52;99331.84;5042070;27;130257;-70
2022/05/16 07:36:16;;;;;;;1.75;0.90;;;11.50;99.90;;;12.78;43.35;99328.84;5061025;27;129905;-73
2022/05/16 07:38:45;;;;;;;2.33;0.90;;;11.10;99.90;;;12.95;42.80;99327.94;5057195;27;120341;-73
2022/05/16 07:41:14;;;;;;;2.13;0.77;;;11.40;99.90;;;13.02;43.32;99336.34;5057276;27;119244;-72
2022/05/16 07:43:43;;;;;;;4.20;2.00;;;11.60;99.90;;;12.83;44.25;99325.91;5055912;27;130823;-73
2022/05/16 07:46:11;;;;;;;3.15;0.85;;;11.70;99.90;;;12.51;43.60;99336.38;5057901;27;130124;-78
2022/05/16 07:48:40;;;;;;;1.85;0.90;;;11.50;99.90;;;12.81;43.30;99339.06;5057277;27;120229;-73
2022/05/16 07:51:10;;;;;;;3.08;0.98;;;11.80;99.90;;;13.12;42.62;99338.69;5057583;27;119537;-72
2022/05/16 07:53:39;;;;;;;2.47;0.80;;;11.50;99.90;;;12.84;41.80;99343.03;5057407;27;130330;-72
2022/05/16 07:56:09;;;;;;;3.67;1.02;;;11.40;99.90;;;12.16;43.72;99349.31;5055993;27;130045;-76
2022/05/16 07:58:37;;;;;;;2.22;1.23;;;11.20;99.90;;;12.23;44.59;99338.72;5039981;27;119866;-76
2022/05/16 08:01:06;;;;;;;1.42;0.80;;;11.40;99.90;;;12.38;42.25;99326.50;5057822;27;119339;-77
2022/05/16 08:03:35;;;;;;;2.42;1.13;;;11.70;99.90;;;12.68;41.16;99345.53;5024733;27;128661;-71
2022/05/16 08:06:03;;;;;;;4.50;1.85;;;12.10;99.90;;;12.69;40.79;99345.22;5038994;27;129860;-76
2022/05/16 08:11:19;;;;;;;4.77;2.03;;;12.00;99.90;;;12.70;40.89;99344.09;5059238;27;123173;-75
2022/05/16 08:13:48;;;;;;;5.05;1.58;;;12.00;99.90;;;13.17;40.89;99336.91;5077282;27;130645;-82
2022/05/16 08:16:16;;;;;;;1.17;0.88;;;12.30;99.90;;;13.35;39.67;99334.84;5077435;27;130045;-77
2022/05/16 08:18:45;;;;;;;6.30;1.00;;;12.40;99.90;;;13.71;39.78;99336.91;5062072;27;119247;-74
2022/05/16 08:21:14;;;;;;;2.92;0.80;;;12.40;99.90;;;13.90;37.38;99327.41;5077283;27;119894;-78
2022/05/16 08:23:44;;;;;;;1.48;0.70;;;12.40;99.90;;;14.51;36.89;99318.50;5077241;27;129483;-75
2022/05/16 08:26:13;;;;;;;2.70;0.88;;;12.60;99.90;;;13.79;38.37;99311.50;5062491;27;129276;-77
2022/05/16 08:28:42;;;;;;;0.90;0.77;;;12.50;99.90;;;13.66;37.78;99332.50;5077872;27;119403;-78
2022/05/16 08:31:11;;;;;;;1.48;0.90;;;12.50;99.90;;;14.16;36.74;99324.38;5062172;27;119036;-76
2022/05/16 08:33:41;;;;;;;2.97;1.13;;;12.70;99.90;;;14.36;37.39;99323.50;5075933;27;129934;-78
2022/05/16 08:41:53;;;;;;;1.02;0.90;;;12.90;99.90;;;14.21;35.67;99316.00;5062695;27;119636;-76
2022/05/16 08:44:28;;;;;;;2.17;0.98;;;12.90;99.90;;;14.53;37.08;99311.53;5062407;27;130400;-72
2022/05/16 08:47:27;;;;;;;1.60;0.90;;;13.10;99.90;;;14.86;36.42;99310.63;5080778;27;129780;-75
2022/05/16 08:49:59;;;;;;;2.45;1.00;;;13.20;99.90;;;14.30;36.10;99318.59;5049070;27;118707;-78
2022/05/16 08:52:37;;;;;;;2.45;1.08;;;12.60;99.90;;;14.37;36.66;99325.09;5065915;27;118911;-73
2022/05/16 08:55:18;;;;;;;3.35;1.35;;;12.80;99.90;;;14.57;36.99;99322.59;5065376;27;128952;-76
2022/05/16 08:57:53;;;;;;;1.48;1.00;;;13.10;99.90;;;15.78;36.39;99318.28;5080510;27;129486;-72
2022/05/16 09:00:32;;;;;;;2.60;0.88;;;14.10;99.90;;;14.38;35.52;99310.31;5061550;27;122330;-72
2022/05/16 09:03:05;;;;;;;1.98;1.00;;;13.00;99.90;;;14.31;35.97;99322.94;5080688;27;122348;-73
2022/05/16 09:05:40;;;;;;;5.50;2.33;;;13.00;99.90;;;14.37;36.17;99319.63;5081007;27;129941;-71
2022/05/16 09:08:15;;;;;;;4.38;1.70;;;13.20;99.90;;;15.17;36.33;99322.06;5080899;27;129723;-71
2022/05/16 09:11:05;;;;;;;3.20;1.05;;;13.50;99.90;;;15.08;35.68;99331.19;5065827;27;119432;-76
2022/05/16 09:13:51;;;;;;;2.60;1.38;;;13.40;99.90;;;14.43;35.99;99322.13;5080921;27;119832;-75
2022/05/16 09:16:45;;;;;;;2.20;1.00;;;13.00;99.90;;;14.57;35.93;99323.38;5080136;27;130669;-76
2022/05/16 09:19:56;;;;;;;3.45;1.50;;;13.10;99.90;;;14.13;37.16;99322.34;5080399;27;130327;-76
2022/05/16 09:22:33;;;;;;;2.30;1.00;;;12.90;99.90;;;13.81;37.51;99322.06;5065308;27;120114;-72
2022/05/16 09:25:10;;;;;;;7.45;4.47;;;12.70;99.90;;;13.60;38.53;99325.66;5080725;27;119625;-74
2022/05/16 09:30:29;;;;;;;2.95;0.80;;;12.90;99.90;;;14.57;36.43;99328.06;5065003;27;128192;-75
2022/05/16 09:33:07;;;;;;;1.20;0.70;;;13.40;99.90;;;14.94;35.74;99314.34;5065597;27;119871;-75
2022/05/16 09:35:47;;;;;;;0.65;0.50;;;13.70;99.90;;;14.66;34.60;99331.50;5083021;27;119505;-71
2022/05/16 09:38:16;;;;;;;7.65;5.45;;;13.20;99.90;;;14.63;36.24;99307.59;5080639;27;130236;-73
2022/05/16 09:41:01;;;;;;;4.07;1.50;;;13.20;99.90;;;15.03;37.01;99323.22;5077901;27;130681;-76
2022/05/16 09:43:35;;;;;;;1.23;0.80;;;13.90;99.90;;;15.06;35.74;99319.78;5062666;27;119812;-71
2022/05/16 09:46:27;;;;;;;2.30;0.90;;;13.80;99.90;;;15.44;36.22;99325.94;5048973;27;119758;-73
2022/05/16 09:49:13;;;;;;;7.80;1.42;;;14.10;99.90;;;16.12;35.33;99322.28;5063192;27;129697;-74
2022/05/16 09:51:46;;;;;;;1.92;0.85;;;14.10;99.90;;;16.54;34.38;99310.75;5079432;27;130190;-75
2022/05/16 09:54:24;;;;;;;4.07;0.90;;;14.40;99.90;;;17.12;33.23;99312.03;5078767;27;122718;-76
2022/05/16 09:57:12;;;;;;;2.15;0.88;;;14.00;99.90;;;16.57;33.97;99311.22;5080117;27;121943;-74
2022/05/16 09:59:49;;;;;;;2.75;1.08;;;14.00;99.90;;;15.70;35.87;99300.06;5079343;27;131096;-75
2022/05/16 10:02:27;;;;;;;3.65;1.50;;;13.90;99.90;;;15.02;36.62;99312.63;5079247;27;129645;-74
2022/05/16 10:04:59;;;;;;;1.88;0.95;;;13.60;99.90;;;14.44;37.57;99307.34;5079978;27;119760;-73
2022/05/16 10:07:42;;;;;;;2.00;1.15;;;13.10;99.90;;;15.43;37.68;99314.19;5064728;27;118965;-72
2022/05/16 10:10:16;;;;;;;4.95;1.17;;;13.80;99.90;;;16.17;35.57;99322.03;5079758;27;130454;-76
2022/05/16 10:12:45;;;;;;;2.13;0.85;;;14.20;99.90;;;15.60;38.00;99324.03;5079461;27;130062;-75
2022/05/16 10:15:17;;;;;;;3.47;1.00;;;13.90;99.90;;;16.04;36.62;99320.50;5064628;27;118431;-77
2022/05/16 10:17:47;;;;;;;1.63;0.90;;;13.70;99.90;;;16.43;35.75;99315.19;5078890;27;119923;-74
2022/05/16 10:20:21;;;;;;;1.58;0.80;;;14.00;99.90;;;16.18;35.82;99318.13;5059909;27;129096;-73
2022/05/16 10:22:58;;;;;;;2.78;0.80;;;14.00;99.90;;;15.97;37.16;99312.94;5079452;27;130865;-75
2022/05/16 10:25:33;;;;;;;2.35;1.08;;;14.00;99.90;;;16.32;35.84;99309.47;5064265;27;118934;-75
2022/05/16 10:28:04;;;;;;;2.47;1.52;;;14.20;99.90;;;15.83;39.01;99304.31;5078920;27;119968;-77
2022/05/16 10:33:24;;;;;;;3.72;0.90;;;14.10;99.90;;;16.00;36.04;99308.66;5071434;27;130450;-74
2022/05/16 10:33:28;;;;;;;1.60;0.90;;;13.80;99.90;;;15.93;36.15;99295.63;5043712;27;130366;-74
2022/05/16 10:36:01;;;;;;;1.23;0.70;;;13.50;99.90;;;15.90;36.83;99311.94;5067845;27;120043;-74
2022/05/16 10:38:39;;;;;;;1.27;0.73;;;13.50;99.90;;;16.04;36.87;99314.25;5069513;27;120127;-71
2022/05/16 10:41:14;;;;;;;2.95;0.73;;;13.50;99.90;;;15.59;37.27;99307.97;5038209;27;129194;-76
2022/05/16 10:43:57;;;;;;;1.90;1.00;;;13.20;99.90;;;15.03;38.30;99323.22;5072983;27;130143;-74
2022/05/16 10:46:33;;;;;;;4.20;1.13;;;13.10;99.90;;;15.06;38.48;99321.75;5077558;27;122205;-71
2022/05/16 10:49:07;;;;;;;2.35;1.00;;;13.10;99.90;;;14.77;39.23;99320.09;5079138;27;123795;-75
2022/05/16 10:51:44;;;;;;;6.15;2.97;;;13.20;99.90;;;14.87;38.53;99319.63;5063292;27;130165;-75
2022/05/16 10:54:18;;;;;;;1.65;0.80;;;13.00;99.90;;;14.93;38.49;99310.06;5078395;27;129477;-71
2022/05/16 10:57:14;;;;;;;2.65;1.40;;;13.00;99.90;;;15.29;38.85;99319.28;5079232;27;120465;-74
2022/05/16 11:00:08;;;;;;;2.42;1.17;;;13.10;99.90;;;15.69;37.60;99304.75;5079019;27;120085;-73
2022/05/16 11:03:19;;;;;;;1.70;0.90;;;13.40;99.90;;;16.51;37.07;99316.16;5078873;27;129969;-74
2022/05/16 11:06:13;;;;;;;2.72;0.90;;;14.10;99.90;;;16.13;37.72;99318.41;5077645;27;129735;-77
2022/05/16 11:08:50;;;;;;;4.43;0.93;;;13.90;99.90;;;16.65;37.16;99316.50;5078592;27;120189;-72
2022/05/16 11:11:40;;;;;;;2.50;0.90;;;13.70;99.90;;;16.58;37.97;99316.34;5077624;27;119211;-75
2022/05/16 11:14:20;;;;;;;1.88;0.70;;;13.70;99.90;;;15.69;37.92;99323.91;5076959;27;130117;-70